Appleton, Colorado
Current Conditions -  °F | °C
As of 8:53 AM on Sunday 21 Dec 2014 (Local Time) from KGJT Reporting Station
Light Snow Light Snow  
Wind Chill: 32°   Ceiling: 1500
Heat Index: 32°   Visibility: 2mi
Dew Point: 31°   Wind: 0mph
Humidity: 96%   Direction: NA
Pressure: 30.06"   Gusts: NA
Location:  39.1857°N, 108.6°W
Report Text: KGJT 211553Z 00000KT 2SM -SN BR OVC015 00/M01 A3006 RMK AO2 SLP192 P0000 T00001006
Loading
Personal Weather Stations






























Interactive Weather Map New forecast layout! Learn more

10-Day Weather Forecast

Advertisements
Track Severe Weather on mobile